createdAt,value
2022-11-13T00:00:12.865Z,14.40
2022-11-13T00:01:13.202Z,13.30
2022-11-13T00:02:13.654Z,13.70
2022-11-13T00:03:13.819Z,13.40
2022-11-13T00:04:14.159Z,13.50
2022-11-13T00:05:14.440Z,14.10
2022-11-13T00:06:14.857Z,13.50
2022-11-13T00:07:15.156Z,14.20
2022-11-13T00:08:15.342Z,14.10
2022-11-13T00:09:15.679Z,14.00
2022-11-13T00:10:15.997Z,14.20
2022-11-13T00:11:16.340Z,14.60
2022-11-13T00:12:16.693Z,14.70
2022-11-13T00:13:16.889Z,14.10
2022-11-13T00:14:17.201Z,13.70
2022-11-13T00:15:17.525Z,14.70
2022-11-13T00:16:17.798Z,14.40
2022-11-13T00:17:18.143Z,14.70
2022-11-13T00:18:18.434Z,13.60
2022-11-13T00:19:18.780Z,13.50
2022-11-13T00:20:19.071Z,13.50
2022-11-13T00:21:19.415Z,13.00
2022-11-13T00:22:19.751Z,13.70
2022-11-13T00:23:20.050Z,13.70
2022-11-13T00:24:20.434Z,14.10
2022-11-13T00:25:20.692Z,14.30
2022-11-13T00:26:20.984Z,14.10
2022-11-13T00:27:21.299Z,13.90
2022-11-13T00:28:21.621Z,14.50
2022-11-13T00:29:21.985Z,14.70
2022-11-13T00:30:22.269Z,15.40
2022-11-13T00:31:22.581Z,14.80
2022-11-13T00:32:22.902Z,14.10
2022-11-13T00:33:45.533Z,13.90
2022-11-13T00:34:46.420Z,15.60
2022-11-13T00:35:24.843Z,14.90
2022-11-13T00:36:26.292Z,14.00
2022-11-13T00:37:24.392Z,14.30
2022-11-13T00:38:24.806Z,14.50
2022-11-13T00:39:24.987Z,14.30
2022-11-13T00:40:25.270Z,14.30
2022-11-13T00:41:25.559Z,14.00
2022-11-13T00:42:25.905Z,14.90
2022-11-13T00:43:26.190Z,14.90
2022-11-13T00:44:26.554Z,15.10
2022-11-13T00:45:26.842Z,14.80
2022-11-13T00:46:27.173Z,14.80
2022-11-13T00:47:27.530Z,15.00
2022-11-13T00:48:28.000Z,15.40
2022-11-13T00:49:28.190Z,14.90
2022-11-13T00:50:28.460Z,15.20
2022-11-13T00:51:28.793Z,14.50
2022-11-13T00:52:29.127Z,14.90
2022-11-13T00:53:29.443Z,15.10
2022-11-13T00:54:29.837Z,14.60
2022-11-13T00:55:30.008Z,15.50
2022-11-13T00:56:30.355Z,14.00
2022-11-13T00:57:30.653Z,13.90
2022-11-13T00:58:31.233Z,14.70
2022-11-13T00:59:31.249Z,15.00
2022-11-13T01:00:31.582Z,15.20
2022-11-13T01:01:31.984Z,14.90
2022-11-13T01:02:32.159Z,16.20
2022-11-13T01:03:32.495Z,16.00
2022-11-13T01:04:32.853Z,15.40
2022-11-13T01:05:33.140Z,14.60
2022-11-13T01:06:33.474Z,13.90
2022-11-13T01:07:33.813Z,14.60
2022-11-13T01:08:34.139Z,15.80
2022-11-13T01:09:34.505Z,14.60
2022-11-13T01:10:34.781Z,15.00
2022-11-13T01:11:35.093Z,15.30
2022-11-13T01:12:35.451Z,15.70
2022-11-13T01:13:35.753Z,14.80
2022-11-13T01:14:36.060Z,14.30
2022-11-13T01:15:36.362Z,14.40
2022-11-13T01:16:36.672Z,14.00
2022-11-13T01:17:36.990Z,16.00
2022-11-13T01:18:37.300Z,16.10
2022-11-13T01:19:37.656Z,14.70
2022-11-13T01:20:37.943Z,15.90
2022-11-13T01:21:38.278Z,14.80
2022-11-13T01:22:38.655Z,14.90
2022-11-13T01:23:38.959Z,14.00
2022-11-13T01:24:39.326Z,15.00
2022-11-13T01:25:39.613Z,15.30
2022-11-13T01:26:39.954Z,14.70
2022-11-13T01:27:40.283Z,13.90
2022-11-13T01:28:40.601Z,14.80
2022-11-13T01:29:40.974Z,13.60
2022-11-13T01:30:41.148Z,14.10
2022-11-13T01:31:41.477Z,14.10
2022-11-13T01:32:41.802Z,13.60
2022-11-13T01:33:42.091Z,14.50
2022-11-13T01:34:42.443Z,13.90
2022-11-13T01:35:42.741Z,14.40
2022-11-13T01:36:43.045Z,14.50
2022-11-13T01:37:43.333Z,13.70
2022-11-13T01:38:43.660Z,13.90
2022-11-13T01:39:43.991Z,13.80
2022-11-13T01:40:44.318Z,12.20
2022-11-13T01:41:44.622Z,13.10
2022-11-13T01:42:44.941Z,13.30
2022-11-13T01:43:45.250Z,13.20
2022-11-13T01:44:45.601Z,12.90
2022-11-13T01:45:45.884Z,13.30
2022-11-13T01:46:46.244Z,13.00
2022-11-13T01:47:46.561Z,12.80
2022-11-13T01:48:46.880Z,12.20
2022-11-13T01:49:47.248Z,12.80
2022-11-13T01:50:47.530Z,12.20
2022-11-13T01:51:47.858Z,12.80
2022-11-13T01:52:48.195Z,12.70
2022-11-13T01:53:48.511Z,12.90
2022-11-13T01:54:48.865Z,12.70
2022-11-13T01:55:49.161Z,12.50
2022-11-13T01:56:49.453Z,13.00
2022-11-13T01:57:49.785Z,13.20
2022-11-13T01:58:50.065Z,12.70
2022-11-13T01:59:50.418Z,13.50
2022-11-13T02:00:50.694Z,12.60
2022-11-13T02:01:51.090Z,12.40
2022-11-13T02:02:51.342Z,13.20
2022-11-13T02:03:51.673Z,13.20
2022-11-13T02:04:52.023Z,12.70
2022-11-13T02:05:52.325Z,12.50
2022-11-13T02:06:52.766Z,11.90
2022-11-13T02:07:52.912Z,12.80
2022-11-13T02:08:53.254Z,13.40
2022-11-13T02:09:53.613Z,12.60
2022-11-13T02:10:53.919Z,13.30
2022-11-13T02:11:54.236Z,12.80
2022-11-13T02:12:54.553Z,13.10
2022-11-13T02:13:54.898Z,13.30
2022-11-13T02:14:55.253Z,12.10
2022-11-13T02:15:55.559Z,12.80
2022-11-13T02:16:55.883Z,12.70
2022-11-13T02:17:56.217Z,12.60
2022-11-13T02:18:56.554Z,12.70
2022-11-13T02:19:56.902Z,12.70
2022-11-13T02:20:57.181Z,12.70
2022-11-13T02:21:57.502Z,13.10
2022-11-13T02:22:57.822Z,12.30
2022-11-13T02:23:58.153Z,13.30
2022-11-13T02:24:58.500Z,13.10
2022-11-13T02:25:58.791Z,13.00
2022-11-13T02:26:59.124Z,13.20
2022-11-13T02:27:59.457Z,13.90
2022-11-13T02:28:59.778Z,12.50
2022-11-13T02:30:00.123Z,12.90
2022-11-13T02:31:00.448Z,13.10
2022-11-13T02:32:00.761Z,13.00
2022-11-13T02:33:01.118Z,13.30
2022-11-13T02:34:01.413Z,13.70
2022-11-13T02:35:01.726Z,13.10
2022-11-13T02:36:02.014Z,13.50
2022-11-13T02:37:02.381Z,12.70
2022-11-13T02:38:02.651Z,12.60
2022-11-13T02:39:02.971Z,13.00
2022-11-13T02:40:03.313Z,12.70
2022-11-13T02:41:03.600Z,12.70
2022-11-13T02:42:03.936Z,12.80
2022-11-13T02:43:04.211Z,12.40
2022-11-13T02:44:04.541Z,12.10
2022-11-13T02:45:04.892Z,13.00
2022-11-13T02:46:05.187Z,12.70
2022-11-13T02:47:05.514Z,12.30
2022-11-13T02:48:05.846Z,12.50
2022-11-13T02:49:06.207Z,12.10
2022-11-13T02:50:06.524Z,12.80
2022-11-13T02:51:06.801Z,12.50
2022-11-13T02:52:07.146Z,12.70
2022-11-13T02:53:07.508Z,12.40
2022-11-13T02:54:07.808Z,13.30
2022-11-13T02:55:08.136Z,12.80
2022-11-13T02:56:08.427Z,12.30
2022-11-13T02:57:08.772Z,13.50
2022-11-13T02:58:09.049Z,13.40
2022-11-13T02:59:09.380Z,13.00
2022-11-13T03:00:13.773Z,13.30
2022-11-13T03:01:10.095Z,13.10
2022-11-13T03:02:10.268Z,13.00
2022-11-13T03:03:10.565Z,13.30
2022-11-13T03:04:10.891Z,13.90
2022-11-13T03:05:12.903Z,13.80
2022-11-13T03:06:11.541Z,13.00
2022-11-13T03:07:11.942Z,12.80
2022-11-13T03:08:12.153Z,13.30
2022-11-13T03:09:12.425Z,14.10
2022-11-13T03:10:12.794Z,13.70
2022-11-13T03:11:13.070Z,14.00
2022-11-13T03:12:13.383Z,14.40
2022-11-13T03:13:13.757Z,13.30
2022-11-13T03:14:14.064Z,13.90
2022-11-13T03:15:14.386Z,13.90
2022-11-13T03:16:14.694Z,13.40
2022-11-13T03:17:14.961Z,13.70
2022-11-13T03:18:15.280Z,13.00
2022-11-13T03:19:15.606Z,12.70
2022-11-13T03:20:15.975Z,13.40
2022-11-13T03:21:16.242Z,12.80
2022-11-13T03:22:16.581Z,13.60
2022-11-13T03:23:16.915Z,13.60
2022-11-13T03:24:17.206Z,13.50
2022-11-13T03:25:17.619Z,14.10
2022-11-13T03:26:17.785Z,13.20
2022-11-13T03:27:18.115Z,12.80
2022-11-13T03:28:18.452Z,12.80
2022-11-13T03:29:18.762Z,12.40
2022-11-13T03:30:19.106Z,13.40
2022-11-13T03:31:19.382Z,13.50
2022-11-13T03:32:19.722Z,13.30
2022-11-13T03:33:20.017Z,13.40
2022-11-13T03:34:20.348Z,12.30
2022-11-13T03:35:20.649Z,12.50
2022-11-13T03:36:20.938Z,12.80
2022-11-13T03:37:21.272Z,12.90
2022-11-13T03:38:21.621Z,12.80
2022-11-13T03:39:21.904Z,13.20
2022-11-13T03:40:22.255Z,13.10
2022-11-13T03:41:22.545Z,13.40
2022-11-13T03:42:22.863Z,13.00
2022-11-13T03:43:23.194Z,12.80
2022-11-13T03:44:23.531Z,12.20
2022-11-13T03:45:23.871Z,12.30
2022-11-13T03:46:24.154Z,12.30
2022-11-13T03:47:24.497Z,12.30
2022-11-13T03:48:24.849Z,13.10
2022-11-13T03:49:25.073Z,13.50
2022-11-13T03:50:25.415Z,13.30
2022-11-13T03:51:25.750Z,13.30
2022-11-13T03:52:26.048Z,13.30
2022-11-13T03:53:26.374Z,12.80
2022-11-13T03:54:26.717Z,13.00
2022-11-13T03:55:27.105Z,12.60
2022-11-13T03:56:27.363Z,13.10
2022-11-13T03:57:27.703Z,13.60
2022-11-13T03:58:28.285Z,12.60
2022-11-13T03:59:28.324Z,12.50
2022-11-13T04:00:28.650Z,13.10
2022-11-13T04:01:28.984Z,12.90
2022-11-13T04:02:29.278Z,12.90
2022-11-13T04:03:29.591Z,13.20
2022-11-13T04:04:29.909Z,12.50
2022-11-13T04:05:30.295Z,13.00
2022-11-13T04:06:30.452Z,12.80
2022-11-13T04:07:30.782Z,13.00
2022-11-13T04:08:31.267Z,13.10
2022-11-13T04:09:31.424Z,12.40
2022-11-13T04:10:31.762Z,12.70
2022-11-13T04:11:32.048Z,12.70
2022-11-13T04:12:32.362Z,12.90
2022-11-13T04:13:32.690Z,12.50
2022-11-13T04:14:33.035Z,11.90
2022-11-13T04:15:33.331Z,11.80
2022-11-13T04:16:33.626Z,12.70
2022-11-13T04:17:33.964Z,12.00
2022-11-13T04:18:34.262Z,11.30
2022-11-13T04:19:34.593Z,11.80
2022-11-13T04:20:35.055Z,12.20
2022-11-13T04:21:35.224Z,12.10
2022-11-13T04:22:35.504Z,11.00
2022-11-13T04:23:35.822Z,11.30
2022-11-13T04:24:36.141Z,11.70
2022-11-13T04:25:36.503Z,12.00
2022-11-13T04:26:36.785Z,11.00
2022-11-13T04:27:37.133Z,11.30
2022-11-13T04:28:37.422Z,11.60
2022-11-13T04:29:37.731Z,11.00
2022-11-13T04:30:38.075Z,12.30
2022-11-13T04:31:38.375Z,11.80
2022-11-13T04:32:38.724Z,11.80
2022-11-13T04:33:39.002Z,12.30
2022-11-13T04:34:39.360Z,11.60
2022-11-13T04:35:39.662Z,11.40
2022-11-13T04:36:39.932Z,11.50
2022-11-13T04:37:40.267Z,12.20
2022-11-13T04:38:40.621Z,11.70
2022-11-13T04:39:40.936Z,11.10
2022-11-13T04:40:41.288Z,11.40
2022-11-13T04:41:41.582Z,10.80
2022-11-13T04:42:41.883Z,11.40
2022-11-13T04:43:42.227Z,11.00
2022-11-13T04:44:42.537Z,10.90
2022-11-13T04:45:42.855Z,10.40
2022-11-13T04:46:43.130Z,11.30
2022-11-13T04:47:43.493Z,11.30
2022-11-13T04:48:43.785Z,11.00
2022-11-13T04:49:44.085Z,11.80
2022-11-13T04:50:44.381Z,11.40
2022-11-13T04:51:44.687Z,11.40
2022-11-13T04:52:45.019Z,11.60
2022-11-13T04:53:45.301Z,10.70
2022-11-13T04:54:45.622Z,11.50
2022-11-13T04:55:46.025Z,11.80
2022-11-13T04:56:46.207Z,10.90
2022-11-13T04:57:46.544Z,11.20
2022-11-13T04:58:46.892Z,10.70
2022-11-13T04:59:47.225Z,10.20
2022-11-13T05:00:47.545Z,11.00
2022-11-13T05:01:47.840Z,10.60
2022-11-13T05:02:48.143Z,10.80
2022-11-13T05:03:48.455Z,10.80
2022-11-13T05:04:48.769Z,10.70
2022-11-13T05:05:49.124Z,11.20
2022-11-13T05:06:49.497Z,10.70
2022-11-13T05:07:49.654Z,10.60
2022-11-13T05:08:49.970Z,11.30
2022-11-13T05:09:50.283Z,11.20
2022-11-13T05:10:50.634Z,10.90
2022-11-13T05:11:50.984Z,10.80
2022-11-13T05:12:51.262Z,11.30
2022-11-13T05:13:51.558Z,10.70
2022-11-13T05:14:51.932Z,11.10
2022-11-13T05:15:52.329Z,10.70
2022-11-13T05:16:52.555Z,10.50
2022-11-13T05:17:52.853Z,11.10
2022-11-13T05:18:53.129Z,10.80
2022-11-13T05:19:53.470Z,10.70
2022-11-13T05:20:53.750Z,10.80
2022-11-13T05:21:54.089Z,10.60
2022-11-13T05:22:54.434Z,10.90
2022-11-13T05:23:54.713Z,11.20
2022-11-13T05:24:55.164Z,10.60
2022-11-13T05:25:55.356Z,11.30
2022-11-13T05:26:55.634Z,11.10
2022-11-13T05:27:55.960Z,10.70
2022-11-13T05:28:56.298Z,10.50
2022-11-13T05:29:56.644Z,10.40
2022-11-13T05:30:56.957Z,10.50
2022-11-13T05:31:57.235Z,10.80
2022-11-13T05:32:57.563Z,10.50
2022-11-13T05:34:01.256Z,11.50
2022-11-13T05:34:59.159Z,10.40
2022-11-13T05:35:58.396Z,10.40
2022-11-13T05:36:58.734Z,11.10
2022-11-13T05:37:59.055Z,10.40
2022-11-13T05:38:59.417Z,10.00
2022-11-13T05:39:59.710Z,10.00
2022-11-13T05:41:00.034Z,10.50
2022-11-13T05:42:00.327Z,9.80
2022-11-13T05:43:00.633Z,10.40
2022-11-13T05:44:00.993Z,9.90
2022-11-13T05:45:01.311Z,10.30
2022-11-13T05:46:01.604Z,10.30
2022-11-13T05:47:01.890Z,10.60
2022-11-13T05:48:02.235Z,10.20
2022-11-13T05:49:02.523Z,10.90
2022-11-13T05:50:02.860Z,10.20
2022-11-13T05:51:03.236Z,10.10
2022-11-13T05:52:11.029Z,10.60
2022-11-13T05:53:03.818Z,10.40
2022-11-13T05:54:04.149Z,10.50
2022-11-13T05:55:04.475Z,10.20
2022-11-13T05:56:04.819Z,10.50
2022-11-13T05:57:05.126Z,10.70
2022-11-13T05:58:05.415Z,9.70
2022-11-13T05:59:05.732Z,10.40
2022-11-13T06:00:06.064Z,10.60
2022-11-13T06:01:06.399Z,11.00
2022-11-13T06:02:06.769Z,10.70
2022-11-13T06:03:06.917Z,11.20
2022-11-13T06:04:07.235Z,10.70
2022-11-13T06:05:07.555Z,10.70
2022-11-13T06:06:07.907Z,10.80
2022-11-13T06:07:08.230Z,11.00
2022-11-13T06:08:08.516Z,10.50
2022-11-13T06:09:08.825Z,10.70
2022-11-13T06:10:09.160Z,10.60
2022-11-13T06:11:09.472Z,10.70
2022-11-13T06:12:09.761Z,10.90
2022-11-13T06:13:10.178Z,11.10
2022-11-13T06:14:10.358Z,11.40
2022-11-13T06:15:10.701Z,10.80
2022-11-13T06:16:11.024Z,11.30
2022-11-13T06:17:11.308Z,10.70
2022-11-13T06:18:11.634Z,11.40
2022-11-13T06:19:11.987Z,10.80
2022-11-13T06:20:12.278Z,10.20
2022-11-13T06:21:12.515Z,10.40
2022-11-13T06:22:12.815Z,10.70
2022-11-13T06:23:13.192Z,10.10
2022-11-13T06:24:13.485Z,10.60
2022-11-13T06:25:13.826Z,11.00
2022-11-13T06:26:14.204Z,11.00
2022-11-13T06:27:14.524Z,11.10
2022-11-13T06:28:14.816Z,11.10
2022-11-13T06:29:15.201Z,10.70
2022-11-13T06:30:15.502Z,11.90
2022-11-13T06:31:15.788Z,10.90
2022-11-13T06:32:15.975Z,10.40
2022-11-13T06:33:16.301Z,10.40
2022-11-13T06:34:16.585Z,10.90
2022-11-13T06:35:16.956Z,10.60
2022-11-13T06:36:17.279Z,10.70
2022-11-13T06:37:17.588Z,10.70
2022-11-13T06:38:17.959Z,11.10
2022-11-13T06:39:18.287Z,10.50
2022-11-13T06:40:18.585Z,10.00
2022-11-13T06:41:18.834Z,10.60
2022-11-13T06:42:19.104Z,11.10
2022-11-13T06:43:19.396Z,10.50
2022-11-13T06:44:19.639Z,11.20
2022-11-13T06:45:19.896Z,10.70
2022-11-13T06:46:20.225Z,10.70
2022-11-13T06:47:20.541Z,10.20
2022-11-13T06:48:20.788Z,10.70
2022-11-13T06:49:21.112Z,10.80
2022-11-13T06:50:21.440Z,10.50
2022-11-13T06:51:21.783Z,10.90
2022-11-13T06:52:22.100Z,9.90
2022-11-13T06:53:22.448Z,10.70
2022-11-13T06:54:22.679Z,10.30
2022-11-13T06:55:22.912Z,9.80
2022-11-13T06:56:23.371Z,9.90
2022-11-13T06:57:23.536Z,10.10
2022-11-13T06:58:23.779Z,9.60
2022-11-13T06:59:24.006Z,9.50
2022-11-13T07:00:24.277Z,9.60
2022-11-13T07:01:24.496Z,9.10
2022-11-13T07:02:24.810Z,9.40
2022-11-13T07:03:25.117Z,9.40
2022-11-13T07:04:25.463Z,9.60
2022-11-13T07:05:25.806Z,9.40
2022-11-13T07:06:26.197Z,9.70
2022-11-13T07:07:26.412Z,8.70
2022-11-13T07:08:26.976Z,8.90
2022-11-13T07:09:26.928Z,9.30
2022-11-13T07:10:27.256Z,9.60
2022-11-13T07:11:27.647Z,9.70
2022-11-13T07:12:27.826Z,9.00
2022-11-13T07:13:28.170Z,9.40
2022-11-13T07:14:28.508Z,9.90
2022-11-13T07:15:28.848Z,9.50
2022-11-13T07:16:44.011Z,9.30
2022-11-13T07:17:30.465Z,9.50
2022-11-13T07:18:30.214Z,9.30
2022-11-13T07:19:30.037Z,10.30
2022-11-13T07:20:30.308Z,9.00
2022-11-13T07:21:30.615Z,10.20
2022-11-13T07:22:30.925Z,10.10
2022-11-13T07:23:31.155Z,10.20
2022-11-13T07:24:31.385Z,10.20
2022-11-13T07:25:31.617Z,10.20
2022-11-13T07:26:31.855Z,10.10
2022-11-13T07:27:32.088Z,9.60
2022-11-13T07:28:32.417Z,9.80
2022-11-13T07:29:32.759Z,10.30
2022-11-13T07:30:32.985Z,9.90
2022-11-13T07:31:33.335Z,10.40
2022-11-13T07:32:33.596Z,10.80
2022-11-13T07:33:33.837Z,10.60
2022-11-13T07:34:34.086Z,9.90
2022-11-13T07:35:34.305Z,10.40
2022-11-13T07:36:34.569Z,10.20
2022-11-13T07:37:34.876Z,10.60
2022-11-13T07:38:35.122Z,9.90
2022-11-13T07:39:35.364Z,10.60
2022-11-13T07:40:35.605Z,9.90
2022-11-13T07:41:35.854Z,10.00
2022-11-13T07:42:36.107Z,10.20
2022-11-13T07:43:36.335Z,10.50
2022-11-13T07:45:37.876Z,10.10
2022-11-13T07:46:37.138Z,9.60
2022-11-13T07:47:37.354Z,9.30
2022-11-13T07:48:37.726Z,10.00
2022-11-13T07:49:37.969Z,9.00
2022-11-13T07:50:38.187Z,9.20
2022-11-13T07:51:38.556Z,9.50
2022-11-13T07:52:38.789Z,10.70
2022-11-13T07:53:39.100Z,10.70
2022-11-13T07:54:39.307Z,10.80
2022-11-13T07:55:39.536Z,9.50
2022-11-13T07:56:39.885Z,8.90
2022-11-13T07:57:40.136Z,9.50
2022-11-13T07:58:40.357Z,9.00
2022-11-13T07:59:40.697Z,9.00
2022-11-13T08:00:41.060Z,8.50
2022-11-13T08:01:41.400Z,8.70
2022-11-13T08:02:41.700Z,8.50
2022-11-13T08:03:42.047Z,8.20
2022-11-13T08:04:42.375Z,8.70
2022-11-13T08:05:42.719Z,8.30
2022-11-13T08:06:43.105Z,7.90
2022-11-13T08:07:46.081Z,8.60
2022-11-13T08:08:44.571Z,9.00
2022-11-13T08:09:43.798Z,9.20
2022-11-13T08:10:44.033Z,9.20
2022-11-13T08:11:44.276Z,9.00
2022-11-13T08:12:44.496Z,10.20
2022-11-13T08:13:44.744Z,8.90
2022-11-13T08:14:45.086Z,9.20
2022-11-13T08:15:45.313Z,9.80
2022-11-13T08:16:45.557Z,9.80
2022-11-13T08:17:45.779Z,9.00
2022-11-13T08:18:46.007Z,8.60
2022-11-13T08:19:46.357Z,8.40
2022-11-13T08:20:46.676Z,8.50
2022-11-13T08:21:47.028Z,8.30
2022-11-13T08:22:47.372Z,8.00
2022-11-13T08:23:47.696Z,8.20
2022-11-13T08:24:48.038Z,8.30
2022-11-13T08:25:48.391Z,7.30
2022-11-13T08:26:48.694Z,7.70
2022-11-13T08:27:49.039Z,7.50
2022-11-13T08:28:50.358Z,7.90
2022-11-13T08:29:49.606Z,7.20
2022-11-13T08:30:49.946Z,9.50
2022-11-13T08:31:50.186Z,8.10
2022-11-13T08:32:50.516Z,7.50
2022-11-13T08:33:50.844Z,7.90
2022-11-13T08:34:51.256Z,7.80
2022-11-13T08:35:51.437Z,7.10
2022-11-13T08:36:51.877Z,7.30
2022-11-13T08:37:52.064Z,6.70
2022-11-13T08:38:52.400Z,7.10
2022-11-13T08:39:52.729Z,6.90
2022-11-13T08:40:53.067Z,6.50
2022-11-13T08:41:53.404Z,6.70
2022-11-13T08:42:53.750Z,6.90
2022-11-13T08:43:54.089Z,6.60
2022-11-13T08:44:54.407Z,6.60
2022-11-13T08:45:54.759Z,6.30
2022-11-13T08:46:55.099Z,6.80
2022-11-13T08:47:55.438Z,6.30
2022-11-13T08:48:55.782Z,6.50
2022-11-13T08:49:56.125Z,6.40
2022-11-13T08:50:56.448Z,6.70
2022-11-13T08:51:56.797Z,6.60
2022-11-13T08:52:57.119Z,6.10
2022-11-13T08:53:57.457Z,6.50
2022-11-13T08:54:57.801Z,6.60
2022-11-13T08:55:58.117Z,6.20
2022-11-13T08:57:03.319Z,5.70
2022-11-13T08:57:59.725Z,5.80
2022-11-13T08:58:59.095Z,5.50
2022-11-13T08:59:59.428Z,5.60
2022-11-13T09:00:59.781Z,5.80
2022-11-13T09:02:00.128Z,5.30
2022-11-13T09:03:00.348Z,5.40
2022-11-13T09:04:00.722Z,5.20
2022-11-13T09:05:01.042Z,5.70
2022-11-13T09:06:01.390Z,4.90
2022-11-13T09:07:01.789Z,4.90
2022-11-13T09:08:02.047Z,4.70
2022-11-13T09:09:02.403Z,4.90
2022-11-13T09:10:02.749Z,5.20
2022-11-13T09:11:02.971Z,5.00
2022-11-13T09:12:03.415Z,5.50
2022-11-13T09:13:03.612Z,4.90
2022-11-13T09:14:03.827Z,5.10
2022-11-13T09:15:04.158Z,5.10
2022-11-13T09:16:04.497Z,4.40
2022-11-13T09:17:04.863Z,4.50
2022-11-13T09:18:05.149Z,4.80
2022-11-13T09:19:05.502Z,4.60
2022-11-13T09:20:07.694Z,4.80
2022-11-13T09:21:06.154Z,4.40
2022-11-13T09:22:07.614Z,4.60
2022-11-13T09:23:06.690Z,4.20
2022-11-13T09:24:07.037Z,4.60
2022-11-13T09:25:07.383Z,4.40
2022-11-13T09:26:07.731Z,4.50
2022-11-13T09:27:08.165Z,4.40
2022-11-13T09:28:08.328Z,4.20
2022-11-13T09:29:08.683Z,4.50
2022-11-13T09:30:08.898Z,3.80
2022-11-13T09:31:09.275Z,4.00
2022-11-13T09:32:09.603Z,4.30
2022-11-13T09:33:09.933Z,3.90
2022-11-13T09:34:10.249Z,3.90
2022-11-13T09:35:10.556Z,3.80
2022-11-13T09:36:10.889Z,3.80
2022-11-13T09:37:11.271Z,4.00
2022-11-13T09:38:11.903Z,3.80
2022-11-13T09:39:12.106Z,3.90
2022-11-13T09:40:12.243Z,4.10
2022-11-13T09:41:12.586Z,3.70
2022-11-13T09:42:12.952Z,3.80
2022-11-13T09:43:13.352Z,4.10
2022-11-13T09:44:13.571Z,3.90
2022-11-13T09:45:13.886Z,3.60
2022-11-13T09:46:14.234Z,3.70
2022-11-13T09:47:14.473Z,3.70
2022-11-13T09:48:14.850Z,3.60
2022-11-13T09:49:15.092Z,3.80
2022-11-13T09:50:15.273Z,3.90
2022-11-13T09:51:15.678Z,4.20
2022-11-13T09:52:15.947Z,3.90
2022-11-13T09:53:16.265Z,3.90
2022-11-13T09:54:16.583Z,3.90
2022-11-13T09:55:16.896Z,3.80
2022-11-13T09:56:17.195Z,4.20
2022-11-13T09:57:20.507Z,3.70
2022-11-13T09:58:18.852Z,3.80
2022-11-13T09:59:18.085Z,3.50
2022-11-13T10:00:18.411Z,3.30
2022-11-13T10:01:18.809Z,3.70
2022-11-13T10:02:19.115Z,3.40
2022-11-13T10:03:39.148Z,3.70
2022-11-13T10:04:20.681Z,3.40
2022-11-13T10:05:19.958Z,3.30
2022-11-13T10:06:20.253Z,3.30
2022-11-13T10:07:20.668Z,3.50
2022-11-13T10:08:20.844Z,3.10
2022-11-13T10:09:21.187Z,2.90
2022-11-13T10:10:21.593Z,2.90
2022-11-13T10:11:21.804Z,3.00
2022-11-13T10:12:22.172Z,3.20
2022-11-13T10:13:22.471Z,2.90
2022-11-13T10:14:22.809Z,3.60
2022-11-13T10:15:23.131Z,2.90
2022-11-13T10:16:23.463Z,3.10
2022-11-13T10:17:23.861Z,3.00
2022-11-13T10:18:24.145Z,2.90
2022-11-13T10:19:24.472Z,2.60
2022-11-13T10:20:24.806Z,2.90
2022-11-13T10:21:25.156Z,2.90
2022-11-13T10:22:32.921Z,2.90
2022-11-13T10:23:27.101Z,3.20
2022-11-13T10:24:41.329Z,2.50
2022-11-13T10:25:26.253Z,3.40
2022-11-13T10:26:26.593Z,3.20
2022-11-13T10:27:26.978Z,3.30
2022-11-13T10:29:28.558Z,3.00
2022-11-13T10:30:27.799Z,2.90
2022-11-13T10:31:28.162Z,3.10
2022-11-13T10:32:28.486Z,2.90
2022-11-13T10:33:29.127Z,2.70
2022-11-13T10:34:29.081Z,2.70
2022-11-13T10:35:29.379Z,2.60
2022-11-13T10:36:29.712Z,3.00
2022-11-13T10:37:30.080Z,2.70
2022-11-13T10:38:30.369Z,2.70
2022-11-13T10:39:30.750Z,2.60
2022-11-13T10:40:31.075Z,3.20
2022-11-13T10:41:31.359Z,3.00
2022-11-13T10:42:31.709Z,3.00
2022-11-13T10:43:32.357Z,2.80
2022-11-13T10:44:32.402Z,3.00
2022-11-13T10:45:32.780Z,3.20
2022-11-13T10:46:33.070Z,3.60
2022-11-13T10:48:34.692Z,3.20
2022-11-13T10:49:33.943Z,2.70
2022-11-13T10:50:41.675Z,3.60
2022-11-13T10:51:34.464Z,3.00
2022-11-13T10:52:34.851Z,3.00
2022-11-13T10:53:35.986Z,2.60
2022-11-13T10:54:35.525Z,3.00
2022-11-13T10:55:35.739Z,2.90
2022-11-13T10:56:36.048Z,3.10
2022-11-13T10:57:36.407Z,2.90
2022-11-13T10:58:36.757Z,3.30
2022-11-13T10:59:37.053Z,3.10
2022-11-13T11:00:37.426Z,2.70
2022-11-13T11:01:37.792Z,2.80
2022-11-13T11:02:38.071Z,2.90
2022-11-13T11:03:38.380Z,3.10
2022-11-13T11:04:38.746Z,2.50
2022-11-13T11:05:39.057Z,2.90
2022-11-13T11:07:17.841Z,2.90
2022-11-13T11:07:40.655Z,3.10
2022-11-13T11:08:39.878Z,2.90
2022-11-13T11:09:40.197Z,3.50
2022-11-13T11:10:40.514Z,3.00
2022-11-13T11:11:40.770Z,2.80
2022-11-13T11:12:41.088Z,3.20
2022-11-13T11:13:41.415Z,3.50
2022-11-13T11:14:41.739Z,2.90
2022-11-13T11:15:42.056Z,3.20
2022-11-13T11:16:42.366Z,3.00
2022-11-13T11:17:42.768Z,3.30
2022-11-13T11:18:42.990Z,2.90
2022-11-13T11:19:43.309Z,3.20
2022-11-13T11:20:43.633Z,3.20
2022-11-13T11:21:44.003Z,3.30
2022-11-13T11:22:44.218Z,3.30
2022-11-13T11:23:44.438Z,3.10
2022-11-13T11:24:44.778Z,3.50
2022-11-13T11:25:45.138Z,3.60
2022-11-13T11:26:45.358Z,4.00
2022-11-13T11:27:45.604Z,4.20
2022-11-13T11:28:45.915Z,3.60
2022-11-13T11:29:46.166Z,4.00
2022-11-13T11:30:46.374Z,3.10
2022-11-13T11:31:46.718Z,3.20
2022-11-13T11:32:47.107Z,3.50
2022-11-13T11:33:47.424Z,4.90
2022-11-13T11:34:47.746Z,6.20
2022-11-13T11:35:48.045Z,4.60
2022-11-13T11:36:48.415Z,3.40
2022-11-13T11:37:48.747Z,3.20
2022-11-13T11:38:49.042Z,3.00
2022-11-13T11:39:49.376Z,3.40
2022-11-13T11:40:49.715Z,3.30
2022-11-13T11:41:50.079Z,3.60
2022-11-13T11:42:50.330Z,3.10
2022-11-13T11:43:50.642Z,3.30
2022-11-13T11:44:50.870Z,3.00
2022-11-13T11:45:51.205Z,4.30
2022-11-13T11:46:51.555Z,2.90
2022-11-13T11:47:51.946Z,3.20
2022-11-13T11:48:52.134Z,3.00
2022-11-13T11:49:52.510Z,3.00
2022-11-13T11:50:52.806Z,3.10
2022-11-13T11:51:53.144Z,3.10
2022-11-13T11:52:53.538Z,3.00
2022-11-13T11:53:53.705Z,2.80
2022-11-13T11:54:54.047Z,3.60
2022-11-13T11:55:54.416Z,3.20
2022-11-13T11:56:54.732Z,2.90
2022-11-13T11:57:54.957Z,2.70
2022-11-13T11:58:55.181Z,3.10
2022-11-13T11:59:55.558Z,2.70
2022-11-13T12:00:55.857Z,3.00
2022-11-13T12:01:56.239Z,3.10
2022-11-13T12:02:56.577Z,2.70
2022-11-13T12:03:56.893Z,2.90
2022-11-13T12:04:57.273Z,3.10
2022-11-13T12:05:57.487Z,2.70
2022-11-13T12:06:57.923Z,2.80
2022-11-13T12:07:58.172Z,2.90
2022-11-13T12:08:58.490Z,2.70
2022-11-13T12:09:58.786Z,2.70
2022-11-13T12:10:59.121Z,2.80
2022-11-13T12:11:59.501Z,2.90
2022-11-13T12:12:59.821Z,2.90
2022-11-13T12:14:00.129Z,2.80
2022-11-13T12:15:00.475Z,2.50
2022-11-13T12:16:00.808Z,2.60
2022-11-13T12:17:01.163Z,2.70
2022-11-13T12:18:01.509Z,2.70
2022-11-13T12:19:01.883Z,2.30
2022-11-13T12:20:02.187Z,2.60
2022-11-13T12:21:02.569Z,2.30
2022-11-13T12:22:02.746Z,2.60
2022-11-13T12:23:03.112Z,2.20
2022-11-13T12:24:03.437Z,2.70
2022-11-13T12:25:03.764Z,2.60
2022-11-13T12:26:04.081Z,2.40
2022-11-13T12:27:04.379Z,2.30
2022-11-13T12:28:04.750Z,2.70
2022-11-13T12:29:05.066Z,2.40
2022-11-13T12:30:05.295Z,2.50
2022-11-13T12:31:05.506Z,2.40
2022-11-13T12:32:05.850Z,2.30
2022-11-13T12:33:06.179Z,2.40
2022-11-13T12:34:06.493Z,2.50
2022-11-13T12:35:06.852Z,2.20
2022-11-13T12:36:07.153Z,2.30
2022-11-13T12:37:07.498Z,2.20
2022-11-13T12:38:07.874Z,2.30
2022-11-13T12:39:08.198Z,2.40
2022-11-13T12:40:08.522Z,2.10
2022-11-13T12:41:08.821Z,2.60
2022-11-13T12:42:09.177Z,2.90
2022-11-13T12:43:09.539Z,2.80
2022-11-13T12:44:09.840Z,2.90
2022-11-13T12:45:10.211Z,2.80
2022-11-13T12:46:10.518Z,2.40
2022-11-13T12:47:10.810Z,2.50
2022-11-13T12:48:11.216Z,2.10
2022-11-13T12:49:11.411Z,2.60
2022-11-13T12:50:11.632Z,2.70
2022-11-13T12:51:11.903Z,2.50
2022-11-13T12:52:12.190Z,2.50
2022-11-13T12:54:41.717Z,2.30
2022-11-13T12:55:42.018Z,2.40
2022-11-13T12:56:43.078Z,2.40
2022-11-13T12:57:42.672Z,2.70
2022-11-13T12:58:43.051Z,2.40
2022-11-13T12:59:43.347Z,2.30
2022-11-13T13:00:43.688Z,2.40
2022-11-13T13:01:44.058Z,2.30
2022-11-13T13:02:44.254Z,2.60
2022-11-13T13:03:44.606Z,2.60
2022-11-13T13:04:44.828Z,2.30
2022-11-13T13:05:45.176Z,2.30
2022-11-13T13:06:45.557Z,2.50
2022-11-13T13:07:45.854Z,2.10
2022-11-13T13:08:53.706Z,2.20
2022-11-13T13:09:46.488Z,2.40
2022-11-13T13:10:46.840Z,2.20
2022-11-13T13:11:47.049Z,2.40
2022-11-13T13:12:47.387Z,2.80